sensor_id;sensor_type;location;lat;lon;timestamp;temperature;humidity
13229;DHT22;6680;53.220;10.402;2022-09-09T00:01:06;14.40;99.90
13229;DHT22;6680;53.220;10.402;2022-09-09T00:03:42;14.40;99.90
13229;DHT22;6680;53.220;10.402;2022-09-09T00:06:18;14.30;99.90
13229;DHT22;6680;53.220;10.402;2022-09-09T00:08:52;14.60;99.90
13229;DHT22;6680;53.220;10.402;2022-09-09T00:11:28;14.30;99.90
13229;DHT22;6680;53.220;10.402;2022-09-09T00:13:59;14.30;99.90
13229;DHT22;6680;53.220;10.402;2022-09-09T00:16:32;14.20;99.90
13229;DHT22;6680;53.220;10.402;2022-09-09T00:19:07;14.30;99.90
13229;DHT22;6680;53.220;10.402;2022-09-09T00:21:39;14.30;99.90
13229;DHT22;6680;53.220;10.402;2022-09-09T00:24:14;14.30;99.90
13229;DHT22;6680;53.220;10.402;2022-09-09T00:26:48;14.30;99.90
13229;DHT22;6680;53.220;10.402;2022-09-09T00:29:23;14.30;99.90
13229;DHT22;6680;53.220;10.402;2022-09-09T00:31:54;14.30;99.90
13229;DHT22;6680;53.220;10.402;2022-09-09T00:34:26;14.30;99.90
13229;DHT22;6680;53.220;10.402;2022-09-09T00:36:56;14.20;99.90
13229;DHT22;6680;53.220;10.402;2022-09-09T00:39:31;14.20;99.90
13229;DHT22;6680;53.220;10.402;2022-09-09T00:42:11;14.10;99.90
13229;DHT22;6680;53.220;10.402;2022-09-09T00:44:51;14.10;99.90
13229;DHT22;6680;53.220;10.402;2022-09-09T00:47:38;14.10;99.90
13229;DHT22;6680;53.220;10.402;2022-09-09T00:50:22;14.10;99.90
13229;DHT22;6680;53.220;10.402;2022-09-09T00:53:02;14.00;99.90
13229;DHT22;6680;53.220;10.402;2022-09-09T00:55:40;13.90;99.90
13229;DHT22;6680;53.220;10.402;2022-09-09T00:58:08;13.90;99.90
13229;DHT22;6680;53.220;10.402;2022-09-09T01:00:42;13.90;99.90
13229;DHT22;6680;53.220;10.402;2022-09-09T01:03:20;14.00;99.90
13229;DHT22;6680;53.220;10.402;2022-09-09T01:06:00;13.80;99.90
13229;DHT22;6680;53.220;10.402;2022-09-09T01:08:42;13.80;99.90
13229;DHT22;6680;53.220;10.402;2022-09-09T01:11:17;13.80;99.90
13229;DHT22;6680;53.220;10.402;2022-09-09T01:13:47;13.80;99.90
13229;DHT22;6680;53.220;10.402;2022-09-09T01:16:16;13.80;99.90
13229;DHT22;6680;53.220;10.402;2022-09-09T01:18:46;14.10;99.90
13229;DHT22;6680;53.220;10.402;2022-09-09T01:21:22;13.90;99.90
13229;DHT22;6680;53.220;10.402;2022-09-09T01:24:14;13.80;99.90
13229;DHT22;6680;53.220;10.402;2022-09-09T01:26:46;13.90;99.90
13229;DHT22;6680;53.220;10.402;2022-09-09T01:29:15;13.90;99.90
13229;DHT22;6680;53.220;10.402;2022-09-09T01:31:52;13.90;99.90
13229;DHT22;6680;53.220;10.402;2022-09-09T01:34:21;14.20;99.90
13229;DHT22;6680;53.220;10.402;2022-09-09T01:36:52;13.90;99.90
13229;DHT22;6680;53.220;10.402;2022-09-09T01:39:21;13.80;99.90
13229;DHT22;6680;53.220;10.402;2022-09-09T01:41:50;13.80;99.90
13229;DHT22;6680;53.220;10.402;2022-09-09T01:44:19;13.70;99.90
13229;DHT22;6680;53.220;10.402;2022-09-09T01:46:46;13.60;99.90
13229;DHT22;6680;53.220;10.402;2022-09-09T01:49:13;13.50;99.90
13229;DHT22;6680;53.220;10.402;2022-09-09T01:51:42;13.80;99.90
13229;DHT22;6680;53.220;10.402;2022-09-09T01:54:09;13.40;99.90
13229;DHT22;6680;53.220;10.402;2022-09-09T01:56:46;13.40;99.90
13229;DHT22;6680;53.220;10.402;2022-09-09T01:59:35;13.40;99.90
13229;DHT22;6680;53.220;10.402;2022-09-09T02:02:10;13.40;99.90
13229;DHT22;6680;53.220;10.402;2022-09-09T02:04:40;13.30;99.90
13229;DHT22;6680;53.220;10.402;2022-09-09T02:07:17;13.50;99.90
13229;DHT22;6680;53.220;10.402;2022-09-09T02:09:49;13.30;99.90
13229;DHT22;6680;53.220;10.402;2022-09-09T02:12:19;13.20;99.90
13229;DHT22;6680;53.220;10.402;2022-09-09T02:14:59;13.40;99.90
13229;DHT22;6680;53.220;10.402;2022-09-09T02:17:33;13.20;99.90
13229;DHT22;6680;53.220;10.402;2022-09-09T02:20:04;13.20;99.90
13229;DHT22;6680;53.220;10.402;2022-09-09T02:22:33;13.10;99.90
13229;DHT22;6680;53.220;10.402;2022-09-09T02:25:01;12.70;99.90
13229;DHT22;6680;53.220;10.402;2022-09-09T02:27:29;13.00;99.90
13229;DHT22;6680;53.220;10.402;2022-09-09T02:29:59;12.90;99.90
13229;DHT22;6680;53.220;10.402;2022-09-09T02:32:29;12.90;99.90
13229;DHT22;6680;53.220;10.402;2022-09-09T02:35:00;13.00;99.90
13229;DHT22;6680;53.220;10.402;2022-09-09T02:37:34;12.90;99.90
13229;DHT22;6680;53.220;10.402;2022-09-09T02:40:02;12.70;99.90
13229;DHT22;6680;53.220;10.402;2022-09-09T02:42:29;12.70;99.90
13229;DHT22;6680;53.220;10.402;2022-09-09T02:44:57;12.70;99.90
13229;DHT22;6680;53.220;10.402;2022-09-09T02:47:33;12.80;99.90
13229;DHT22;6680;53.220;10.402;2022-09-09T02:50:12;12.80;99.90
13229;DHT22;6680;53.220;10.402;2022-09-09T02:52:47;12.70;99.90
13229;DHT22;6680;53.220;10.402;2022-09-09T02:55:20;12.70;99.90
13229;DHT22;6680;53.220;10.402;2022-09-09T02:57:51;12.70;99.90
13229;DHT22;6680;53.220;10.402;2022-09-09T03:00:25;12.70;99.90
13229;DHT22;6680;53.220;10.402;2022-09-09T03:02:53;12.70;99.90
13229;DHT22;6680;53.220;10.402;2022-09-09T03:05:20;12.60;99.90
13229;DHT22;6680;53.220;10.402;2022-09-09T03:07:47;12.60;99.90
13229;DHT22;6680;53.220;10.402;2022-09-09T03:10:15;12.60;99.90
13229;DHT22;6680;53.220;10.402;2022-09-09T03:12:42;12.60;99.90
13229;DHT22;6680;53.220;10.402;2022-09-09T03:15:09;12.60;99.90
13229;DHT22;6680;53.220;10.402;2022-09-09T03:17:37;12.60;99.90
13229;DHT22;6680;53.220;10.402;2022-09-09T03:20:05;12.60;99.90
13229;DHT22;6680;53.220;10.402;2022-09-09T03:22:32;12.60;99.90
13229;DHT22;6680;53.220;10.402;2022-09-09T03:24:59;12.30;99.90
13229;DHT22;6680;53.220;10.402;2022-09-09T03:27:27;12.50;99.90
13229;DHT22;6680;53.220;10.402;2022-09-09T03:29:54;12.60;99.90
13229;DHT22;6680;53.220;10.402;2022-09-09T03:32:21;12.60;99.90
13229;DHT22;6680;53.220;10.402;2022-09-09T03:34:52;12.80;99.90
13229;DHT22;6680;53.220;10.402;2022-09-09T03:37:20;12.70;99.90
13229;DHT22;6680;53.220;10.402;2022-09-09T03:39:48;12.40;99.90
13229;DHT22;6680;53.220;10.402;2022-09-09T03:42:15;12.40;99.90
13229;DHT22;6680;53.220;10.402;2022-09-09T03:44:44;12.40;99.90
13229;DHT22;6680;53.220;10.402;2022-09-09T03:47:13;12.40;99.90
13229;DHT22;6680;53.220;10.402;2022-09-09T03:49:40;12.40;99.90
13229;DHT22;6680;53.220;10.402;2022-09-09T03:52:09;12.30;99.90
13229;DHT22;6680;53.220;10.402;2022-09-09T03:54:36;12.30;99.90
13229;DHT22;6680;53.220;10.402;2022-09-09T03:57:03;12.30;99.90
13229;DHT22;6680;53.220;10.402;2022-09-09T03:59:31;12.40;99.90
13229;DHT22;6680;53.220;10.402;2022-09-09T04:01:58;12.40;99.90
13229;DHT22;6680;53.220;10.402;2022-09-09T04:04:25;12.40;99.90
13229;DHT22;6680;53.220;10.402;2022-09-09T04:06:52;12.40;99.90
13229;DHT22;6680;53.220;10.402;2022-09-09T04:09:21;12.40;99.90
13229;DHT22;6680;53.220;10.402;2022-09-09T04:11:47;12.40;99.90
13229;DHT22;6680;53.220;10.402;2022-09-09T04:14:15;12.40;99.90
13229;DHT22;6680;53.220;10.402;2022-09-09T04:16:41;12.40;99.90
13229;DHT22;6680;53.220;10.402;2022-09-09T04:19:10;12.50;99.90
13229;DHT22;6680;53.220;10.402;2022-09-09T04:21:39;12.50;99.90
13229;DHT22;6680;53.220;10.402;2022-09-09T04:24:06;12.60;99.90
13229;DHT22;6680;53.220;10.402;2022-09-09T04:26:35;12.70;99.90
13229;DHT22;6680;53.220;10.402;2022-09-09T04:29:03;12.80;99.90
13229;DHT22;6680;53.220;10.402;2022-09-09T04:31:30;12.80;99.90
13229;DHT22;6680;53.220;10.402;2022-09-09T04:33:57;12.90;99.90
13229;DHT22;6680;53.220;10.402;2022-09-09T04:36:24;12.90;99.90
13229;DHT22;6680;53.220;10.402;2022-09-09T04:38:50;12.90;99.90
13229;DHT22;6680;53.220;10.402;2022-09-09T04:41:18;13.00;99.90
13229;DHT22;6680;53.220;10.402;2022-09-09T04:43:46;13.00;99.90
13229;DHT22;6680;53.220;10.402;2022-09-09T04:46:13;13.10;99.90
13229;DHT22;6680;53.220;10.402;2022-09-09T04:48:42;13.10;99.90
13229;DHT22;6680;53.220;10.402;2022-09-09T04:51:12;13.10;99.90
13229;DHT22;6680;53.220;10.402;2022-09-09T04:53:39;13.20;99.90
13229;DHT22;6680;53.220;10.402;2022-09-09T04:56:08;13.20;99.90
13229;DHT22;6680;53.220;10.402;2022-09-09T04:58:36;13.20;99.90
13229;DHT22;6680;53.220;10.402;2022-09-09T05:01:06;13.30;99.90
13229;DHT22;6680;53.220;10.402;2022-09-09T05:03:33;13.30;99.90
13229;DHT22;6680;53.220;10.402;2022-09-09T05:06:04;13.30;99.90
13229;DHT22;6680;53.220;10.402;2022-09-09T05:08:31;13.30;99.90
13229;DHT22;6680;53.220;10.402;2022-09-09T05:10:58;13.40;99.90
13229;DHT22;6680;53.220;10.402;2022-09-09T05:13:25;13.40;99.90
13229;DHT22;6680;53.220;10.402;2022-09-09T05:15:52;13.40;99.90
13229;DHT22;6680;53.220;10.402;2022-09-09T05:18:21;13.40;99.90
13229;DHT22;6680;53.220;10.402;2022-09-09T05:20:48;13.30;99.90
13229;DHT22;6680;53.220;10.402;2022-09-09T05:23:14;13.30;99.90
13229;DHT22;6680;53.220;10.402;2022-09-09T05:25:41;13.30;99.90
13229;DHT22;6680;53.220;10.402;2022-09-09T05:28:09;13.40;99.90
13229;DHT22;6680;53.220;10.402;2022-09-09T05:30:37;13.40;99.90
13229;DHT22;6680;53.220;10.402;2022-09-09T05:33:03;13.30;99.90
13229;DHT22;6680;53.220;10.402;2022-09-09T05:35:32;13.30;99.90
13229;DHT22;6680;53.220;10.402;2022-09-09T05:37:59;13.40;99.90
13229;DHT22;6680;53.220;10.402;2022-09-09T05:40:27;13.40;99.90
13229;DHT22;6680;53.220;10.402;2022-09-09T05:42:54;13.40;99.90
13229;DHT22;6680;53.220;10.402;2022-09-09T05:45:20;13.50;99.90
13229;DHT22;6680;53.220;10.402;2022-09-09T05:47:51;13.70;99.90
13229;DHT22;6680;53.220;10.402;2022-09-09T05:50:18;13.80;99.90
13229;DHT22;6680;53.220;10.402;2022-09-09T05:52:47;13.80;99.90
13229;DHT22;6680;53.220;10.402;2022-09-09T05:55:15;14.00;99.90
13229;DHT22;6680;53.220;10.402;2022-09-09T05:57:42;14.00;99.90
13229;DHT22;6680;53.220;10.402;2022-09-09T06:00:09;14.10;99.90
13229;DHT22;6680;53.220;10.402;2022-09-09T06:02:37;14.10;99.90
13229;DHT22;6680;53.220;10.402;2022-09-09T06:05:05;13.90;99.90
13229;DHT22;6680;53.220;10.402;2022-09-09T06:07:32;14.20;99.90
13229;DHT22;6680;53.220;10.402;2022-09-09T06:10:00;14.20;99.90
13229;DHT22;6680;53.220;10.402;2022-09-09T06:12:27;14.20;99.90
13229;DHT22;6680;53.220;10.402;2022-09-09T06:14:53;14.50;99.90
13229;DHT22;6680;53.220;10.402;2022-09-09T06:17:20;14.30;99.90
13229;DHT22;6680;53.220;10.402;2022-09-09T06:19:47;14.30;99.90
13229;DHT22;6680;53.220;10.402;2022-09-09T06:22:13;14.30;99.90
13229;DHT22;6680;53.220;10.402;2022-09-09T06:24:40;14.40;99.90
13229;DHT22;6680;53.220;10.402;2022-09-09T06:27:08;14.40;99.90
13229;DHT22;6680;53.220;10.402;2022-09-09T06:29:36;14.40;99.90
13229;DHT22;6680;53.220;10.402;2022-09-09T06:32:03;14.50;99.90
13229;DHT22;6680;53.220;10.402;2022-09-09T06:34:29;14.50;99.90
13229;DHT22;6680;53.220;10.402;2022-09-09T06:36:56;14.60;99.90
13229;DHT22;6680;53.220;10.402;2022-09-09T06:39:23;14.70;99.90
13229;DHT22;6680;53.220;10.402;2022-09-09T06:41:51;14.70;99.90
13229;DHT22;6680;53.220;10.402;2022-09-09T06:44:19;14.80;99.90
13229;DHT22;6680;53.220;10.402;2022-09-09T06:46:48;14.80;99.90
13229;DHT22;6680;53.220;10.402;2022-09-09T06:49:15;14.90;99.90
13229;DHT22;6680;53.220;10.402;2022-09-09T06:51:42;14.90;99.90
13229;DHT22;6680;53.220;10.402;2022-09-09T06:54:09;15.00;99.90
13229;DHT22;6680;53.220;10.402;2022-09-09T06:56:38;15.10;99.90
13229;DHT22;6680;53.220;10.402;2022-09-09T06:59:06;15.10;99.90
13229;DHT22;6680;53.220;10.402;2022-09-09T07:01:37;15.20;99.90
13229;DHT22;6680;53.220;10.402;2022-09-09T07:04:06;15.30;99.90
13229;DHT22;6680;53.220;10.402;2022-09-09T07:06:35;15.40;99.90
13229;DHT22;6680;53.220;10.402;2022-09-09T07:09:04;15.50;99.90
13229;DHT22;6680;53.220;10.402;2022-09-09T07:11:34;15.70;99.90
13229;DHT22;6680;53.220;10.402;2022-09-09T07:14:01;15.80;99.90
13229;DHT22;6680;53.220;10.402;2022-09-09T07:16:27;16.00;99.90
13229;DHT22;6680;53.220;10.402;2022-09-09T07:18:56;16.10;99.90
13229;DHT22;6680;53.220;10.402;2022-09-09T07:21:24;16.20;99.90
13229;DHT22;6680;53.220;10.402;2022-09-09T07:23:51;16.40;99.90
13229;DHT22;6680;53.220;10.402;2022-09-09T07:26:20;16.50;99.90
13229;DHT22;6680;53.220;10.402;2022-09-09T07:28:48;16.60;99.90
13229;DHT22;6680;53.220;10.402;2022-09-09T07:31:16;16.80;99.90
13229;DHT22;6680;53.220;10.402;2022-09-09T07:33:44;17.00;99.90
13229;DHT22;6680;53.220;10.402;2022-09-09T07:36:15;17.10;99.90
13229;DHT22;6680;53.220;10.402;2022-09-09T07:38:44;17.30;99.90
13229;DHT22;6680;53.220;10.402;2022-09-09T07:41:12;17.40;99.90
13229;DHT22;6680;53.220;10.402;2022-09-09T07:43:40;17.60;99.90
13229;DHT22;6680;53.220;10.402;2022-09-09T07:46:07;17.80;99.90
13229;DHT22;6680;53.220;10.402;2022-09-09T07:48:34;17.90;99.90
13229;DHT22;6680;53.220;10.402;2022-09-09T07:51:09;18.00;99.90
13229;DHT22;6680;53.220;10.402;2022-09-09T07:53:38;18.10;99.90
13229;DHT22;6680;53.220;10.402;2022-09-09T07:56:06;18.20;99.90
13229;DHT22;6680;53.220;10.402;2022-09-09T07:58:35;18.30;99.90
13229;DHT22;6680;53.220;10.402;2022-09-09T08:01:06;18.40;99.90
13229;DHT22;6680;53.220;10.402;2022-09-09T08:03:34;18.50;99.90
13229;DHT22;6680;53.220;10.402;2022-09-09T08:06:02;18.60;99.90
13229;DHT22;6680;53.220;10.402;2022-09-09T08:08:29;18.60;99.90
13229;DHT22;6680;53.220;10.402;2022-09-09T08:11:06;18.70;99.90
13229;DHT22;6680;53.220;10.402;2022-09-09T08:13:35;18.70;99.90
13229;DHT22;6680;53.220;10.402;2022-09-09T08:16:06;18.80;99.90
13229;DHT22;6680;53.220;10.402;2022-09-09T08:18:33;18.80;99.90
13229;DHT22;6680;53.220;10.402;2022-09-09T08:21:08;18.80;99.90
13229;DHT22;6680;53.220;10.402;2022-09-09T08:23:37;18.80;99.90
13229;DHT22;6680;53.220;10.402;2022-09-09T08:26:07;18.80;99.90
13229;DHT22;6680;53.220;10.402;2022-09-09T08:28:35;18.80;99.90
13229;DHT22;6680;53.220;10.402;2022-09-09T08:31:07;18.80;99.90
13229;DHT22;6680;53.220;10.402;2022-09-09T08:33:34;18.90;99.90
13229;DHT22;6680;53.220;10.402;2022-09-09T08:36:04;18.90;99.90
13229;DHT22;6680;53.220;10.402;2022-09-09T08:38:30;18.90;99.90
13229;DHT22;6680;53.220;10.402;2022-09-09T08:41:07;19.00;99.90
13229;DHT22;6680;53.220;10.402;2022-09-09T08:43:39;19.00;99.90
13229;DHT22;6680;53.220;10.402;2022-09-09T08:46:11;19.10;99.90
13229;DHT22;6680;53.220;10.402;2022-09-09T08:48:47;19.20;99.90
13229;DHT22;6680;53.220;10.402;2022-09-09T08:51:18;19.40;99.90
13229;DHT22;6680;53.220;10.402;2022-09-09T08:53:49;19.60;99.90
13229;DHT22;6680;53.220;10.402;2022-09-09T08:56:21;19.70;99.90
13229;DHT22;6680;53.220;10.402;2022-09-09T08:58:53;19.80;99.90
13229;DHT22;6680;53.220;10.402;2022-09-09T09:01:40;19.80;99.90
13229;DHT22;6680;53.220;10.402;2022-09-09T09:04:20;19.80;99.90
13229;DHT22;6680;53.220;10.402;2022-09-09T09:06:57;19.80;99.90
13229;DHT22;6680;53.220;10.402;2022-09-09T09:09:35;19.80;99.90
13229;DHT22;6680;53.220;10.402;2022-09-09T09:12:15;19.80;99.90
13229;DHT22;6680;53.220;10.402;2022-09-09T09:14:45;19.80;99.90
13229;DHT22;6680;53.220;10.402;2022-09-09T09:17:14;20.00;99.90
13229;DHT22;6680;53.220;10.402;2022-09-09T09:19:42;20.00;99.90
13229;DHT22;6680;53.220;10.402;2022-09-09T09:22:17;20.00;99.90
13229;DHT22;6680;53.220;10.402;2022-09-09T09:24:50;20.00;99.90
13229;DHT22;6680;53.220;10.402;2022-09-09T09:27:21;20.10;99.90
13229;DHT22;6680;53.220;10.402;2022-09-09T09:29:56;20.20;99.90
13229;DHT22;6680;53.220;10.402;2022-09-09T09:32:24;20.20;99.90
13229;DHT22;6680;53.220;10.402;2022-09-09T09:34:56;20.60;99.90
13229;DHT22;6680;53.220;10.402;2022-09-09T09:37:31;20.30;99.90
13229;DHT22;6680;53.220;10.402;2022-09-09T09:40:08;20.30;99.90
13229;DHT22;6680;53.220;10.402;2022-09-09T09:42:35;20.30;99.90
13229;DHT22;6680;53.220;10.402;2022-09-09T09:45:16;20.30;99.90
13229;DHT22;6680;53.220;10.402;2022-09-09T09:47:43;20.20;99.90
13229;DHT22;6680;53.220;10.402;2022-09-09T09:50:17;20.10;99.90
13229;DHT22;6680;53.220;10.402;2022-09-09T09:52:54;20.10;99.90
13229;DHT22;6680;53.220;10.402;2022-09-09T09:55:21;20.10;99.90
13229;DHT22;6680;53.220;10.402;2022-09-09T09:57:49;20.10;99.90
13229;DHT22;6680;53.220;10.402;2022-09-09T10:00:20;20.10;99.90
13229;DHT22;6680;53.220;10.402;2022-09-09T10:02:48;20.20;99.90
13229;DHT22;6680;53.220;10.402;2022-09-09T10:05:19;20.40;99.90
13229;DHT22;6680;53.220;10.402;2022-09-09T10:07:47;20.40;99.90
13229;DHT22;6680;53.220;10.402;2022-09-09T10:10:33;20.40;99.90
13229;DHT22;6680;53.220;10.402;2022-09-09T10:13:05;20.50;99.90
13229;DHT22;6680;53.220;10.402;2022-09-09T10:15:42;20.60;99.90
13229;DHT22;6680;53.220;10.402;2022-09-09T10:18:25;20.60;99.90
13229;DHT22;6680;53.220;10.402;2022-09-09T10:21:06;20.80;99.90
13229;DHT22;6680;53.220;10.402;2022-09-09T10:23:46;21.00;99.90
13229;DHT22;6680;53.220;10.402;2022-09-09T10:26:28;21.20;99.90
13229;DHT22;6680;53.220;10.402;2022-09-09T10:29:25;21.30;99.90
13229;DHT22;6680;53.220;10.402;2022-09-09T10:32:06;21.40;99.90
13229;DHT22;6680;53.220;10.402;2022-09-09T10:34:52;21.70;99.90
13229;DHT22;6680;53.220;10.402;2022-09-09T10:37:34;21.90;99.90
13229;DHT22;6680;53.220;10.402;2022-09-09T10:40:08;22.10;99.90
13229;DHT22;6680;53.220;10.402;2022-09-09T10:42:41;22.20;99.90
13229;DHT22;6680;53.220;10.402;2022-09-09T10:45:17;22.40;99.90
13229;DHT22;6680;53.220;10.402;2022-09-09T10:48:03;22.60;99.90
13229;DHT22;6680;53.220;10.402;2022-09-09T10:50:46;22.60;99.90
13229;DHT22;6680;53.220;10.402;2022-09-09T10:53:18;22.70;99.90
13229;DHT22;6680;53.220;10.402;2022-09-09T10:55:53;22.70;99.90
13229;DHT22;6680;53.220;10.402;2022-09-09T10:58:22;22.60;99.90
13229;DHT22;6680;53.220;10.402;2022-09-09T11:00:54;22.50;99.90
13229;DHT22;6680;53.220;10.402;2022-09-09T11:03:25;22.30;99.90
13229;DHT22;6680;53.220;10.402;2022-09-09T11:05:57;22.10;99.90
13229;DHT22;6680;53.220;10.402;2022-09-09T11:08:26;22.00;99.90
13229;DHT22;6680;53.220;10.402;2022-09-09T11:10:58;21.70;99.90
13229;DHT22;6680;53.220;10.402;2022-09-09T11:13:34;21.60;99.90
13229;DHT22;6680;53.220;10.402;2022-09-09T11:16:15;21.50;99.90
13229;DHT22;6680;53.220;10.402;2022-09-09T11:18:45;21.60;99.90
13229;DHT22;6680;53.220;10.402;2022-09-09T11:21:17;21.70;99.90
13229;DHT22;6680;53.220;10.402;2022-09-09T11:23:50;21.80;99.90
13229;DHT22;6680;53.220;10.402;2022-09-09T11:26:27;21.90;99.90
13229;DHT22;6680;53.220;10.402;2022-09-09T11:29:06;21.70;99.90
13229;DHT22;6680;53.220;10.402;2022-09-09T11:31:44;21.70;99.90
13229;DHT22;6680;53.220;10.402;2022-09-09T11:34:23;21.50;99.90
13229;DHT22;6680;53.220;10.402;2022-09-09T11:37:08;21.40;99.90
13229;DHT22;6680;53.220;10.402;2022-09-09T11:39:59;21.20;99.90
13229;DHT22;6680;53.220;10.402;2022-09-09T11:42:30;21.00;99.90
13229;DHT22;6680;53.220;10.402;2022-09-09T11:45:09;20.30;99.90
13229;DHT22;6680;53.220;10.402;2022-09-09T11:47:36;20.50;99.90
13229;DHT22;6680;53.220;10.402;2022-09-09T11:50:28;20.30;99.90
13229;DHT22;6680;53.220;10.402;2022-09-09T11:53:05;19.90;99.90
13229;DHT22;6680;53.220;10.402;2022-09-09T11:55:34;19.50;99.90
13229;DHT22;6680;53.220;10.402;2022-09-09T11:58:03;19.30;99.90
13229;DHT22;6680;53.220;10.402;2022-09-09T12:00:36;19.20;99.90
13229;DHT22;6680;53.220;10.402;2022-09-09T12:03:04;19.20;99.90
13229;DHT22;6680;53.220;10.402;2022-09-09T12:05:40;19.20;99.90
13229;DHT22;6680;53.220;10.402;2022-09-09T12:08:09;19.40;99.90
13229;DHT22;6680;53.220;10.402;2022-09-09T12:10:39;19.60;99.90
13229;DHT22;6680;53.220;10.402;2022-09-09T12:13:16;19.70;99.90
13229;DHT22;6680;53.220;10.402;2022-09-09T12:15:47;19.90;99.90
13229;DHT22;6680;53.220;10.402;2022-09-09T12:18:16;20.00;99.90
13229;DHT22;6680;53.220;10.402;2022-09-09T12:20:57;20.10;99.90
13229;DHT22;6680;53.220;10.402;2022-09-09T12:23:32;20.20;99.90
13229;DHT22;6680;53.220;10.402;2022-09-09T12:26:10;20.50;99.90
13229;DHT22;6680;53.220;10.402;2022-09-09T12:28:45;20.80;99.90
13229;DHT22;6680;53.220;10.402;2022-09-09T12:31:17;21.10;99.90
13229;DHT22;6680;53.220;10.402;2022-09-09T12:33:47;21.40;99.90
13229;DHT22;6680;53.220;10.402;2022-09-09T12:36:17;21.60;99.90
13229;DHT22;6680;53.220;10.402;2022-09-09T12:38:45;21.80;99.90
13229;DHT22;6680;53.220;10.402;2022-09-09T12:41:20;21.90;99.90
13229;DHT22;6680;53.220;10.402;2022-09-09T12:43:47;22.00;99.90
13229;DHT22;6680;53.220;10.402;2022-09-09T12:46:23;22.10;99.90
13229;DHT22;6680;53.220;10.402;2022-09-09T12:48:53;22.10;99.90
13229;DHT22;6680;53.220;10.402;2022-09-09T12:51:26;22.10;99.90
13229;DHT22;6680;53.220;10.402;2022-09-09T12:53:53;22.10;99.90
13229;DHT22;6680;53.220;10.402;2022-09-09T12:56:22;22.00;99.90
13229;DHT22;6680;53.220;10.402;2022-09-09T12:58:52;22.00;99.90
13229;DHT22;6680;53.220;10.402;2022-09-09T13:01:22;22.10;99.90
13229;DHT22;6680;53.220;10.402;2022-09-09T13:03:49;22.10;99.90
13229;DHT22;6680;53.220;10.402;2022-09-09T13:06:22;22.10;99.90
13229;DHT22;6680;53.220;10.402;2022-09-09T13:08:49;22.10;99.90
13229;DHT22;6680;53.220;10.402;2022-09-09T13:11:20;22.10;99.90
13229;DHT22;6680;53.220;10.402;2022-09-09T13:13:52;22.10;99.90
13229;DHT22;6680;53.220;10.402;2022-09-09T13:16:22;22.00;99.90
13229;DHT22;6680;53.220;10.402;2022-09-09T13:18:49;21.90;99.90
13229;DHT22;6680;53.220;10.402;2022-09-09T13:21:17;21.90;99.90
13229;DHT22;6680;53.220;10.402;2022-09-09T13:23:50;21.90;99.90
13229;DHT22;6680;53.220;10.402;2022-09-09T13:26:22;21.80;99.90
13229;DHT22;6680;53.220;10.402;2022-09-09T13:28:50;21.70;99.90
13229;DHT22;6680;53.220;10.402;2022-09-09T13:31:22;21.60;99.90
13229;DHT22;6680;53.220;10.402;2022-09-09T13:33:49;21.40;99.90
13229;DHT22;6680;53.220;10.402;2022-09-09T13:36:28;21.20;99.90
13229;DHT22;6680;53.220;10.402;2022-09-09T13:38:59;21.00;99.90
13229;DHT22;6680;53.220;10.402;2022-09-09T13:41:35;20.70;99.90
13229;DHT22;6680;53.220;10.402;2022-09-09T13:44:03;20.50;99.90
13229;DHT22;6680;53.220;10.402;2022-09-09T13:46:34;20.30;99.90
13229;DHT22;6680;53.220;10.402;2022-09-09T13:49:03;20.10;99.90
13229;DHT22;6680;53.220;10.402;2022-09-09T13:51:46;19.90;99.90
13229;DHT22;6680;53.220;10.402;2022-09-09T13:54:17;19.80;99.90
13229;DHT22;6680;53.220;10.402;2022-09-09T13:56:44;19.70;99.90
13229;DHT22;6680;53.220;10.402;2022-09-09T13:59:13;19.60;99.90
13229;DHT22;6680;53.220;10.402;2022-09-09T14:01:40;19.50;99.90
13229;DHT22;6680;53.220;10.402;2022-09-09T14:04:07;19.10;99.90
13229;DHT22;6680;53.220;10.402;2022-09-09T14:06:36;18.90;99.90
13229;DHT22;6680;53.220;10.402;2022-09-09T14:09:04;18.60;99.90
13229;DHT22;6680;53.220;10.402;2022-09-09T14:11:33;18.40;99.90
13229;DHT22;6680;53.220;10.402;2022-09-09T14:14:00;18.30;99.90
13229;DHT22;6680;53.220;10.402;2022-09-09T14:16:27;18.20;99.90
13229;DHT22;6680;53.220;10.402;2022-09-09T14:18:54;18.20;99.90
13229;DHT22;6680;53.220;10.402;2022-09-09T14:21:22;18.10;99.90
13229;DHT22;6680;53.220;10.402;2022-09-09T14:23:48;18.00;99.90
13229;DHT22;6680;53.220;10.402;2022-09-09T14:26:15;17.90;99.90
13229;DHT22;6680;53.220;10.402;2022-09-09T14:28:45;17.80;99.90
13229;DHT22;6680;53.220;10.402;2022-09-09T14:31:12;17.70;99.90
13229;DHT22;6680;53.220;10.402;2022-09-09T14:33:40;17.60;99.90
13229;DHT22;6680;53.220;10.402;2022-09-09T14:36:07;17.60;99.90
13229;DHT22;6680;53.220;10.402;2022-09-09T14:38:35;17.50;99.90
13229;DHT22;6680;53.220;10.402;2022-09-09T14:41:05;17.50;99.90
13229;DHT22;6680;53.220;10.402;2022-09-09T14:43:32;17.50;99.90
13229;DHT22;6680;53.220;10.402;2022-09-09T14:46:05;17.50;99.90
13229;DHT22;6680;53.220;10.402;2022-09-09T14:48:32;17.50;99.90
13229;DHT22;6680;53.220;10.402;2022-09-09T14:51:05;17.40;99.90
13229;DHT22;6680;53.220;10.402;2022-09-09T14:53:32;17.40;99.90
13229;DHT22;6680;53.220;10.402;2022-09-09T14:56:04;17.50;99.90
13229;DHT22;6680;53.220;10.402;2022-09-09T14:58:31;17.50;99.90
13229;DHT22;6680;53.220;10.402;2022-09-09T15:01:02;17.50;99.90
13229;DHT22;6680;53.220;10.402;2022-09-09T15:03:31;17.50;99.90
13229;DHT22;6680;53.220;10.402;2022-09-09T15:06:04;17.50;99.90
13229;DHT22;6680;53.220;10.402;2022-09-09T15:08:31;17.60;99.90
13229;DHT22;6680;53.220;10.402;2022-09-09T15:10:59;17.60;99.90
13229;DHT22;6680;53.220;10.402;2022-09-09T15:13:26;17.70;99.90
13229;DHT22;6680;53.220;10.402;2022-09-09T15:15:53;17.70;99.90
13229;DHT22;6680;53.220;10.402;2022-09-09T15:18:20;17.70;99.90
13229;DHT22;6680;53.220;10.402;2022-09-09T15:20:48;17.70;99.90
13229;DHT22;6680;53.220;10.402;2022-09-09T15:23:15;17.70;99.90
13229;DHT22;6680;53.220;10.402;2022-09-09T15:25:51;17.70;99.90
13229;DHT22;6680;53.220;10.402;2022-09-09T15:28:18;17.80;99.90
13229;DHT22;6680;53.220;10.402;2022-09-09T15:30:47;17.80;99.90
13229;DHT22;6680;53.220;10.402;2022-09-09T15:33:14;17.80;99.90
13229;DHT22;6680;53.220;10.402;2022-09-09T15:35:41;17.80;99.90
13229;DHT22;6680;53.220;10.402;2022-09-09T15:38:11;17.90;99.90
13229;DHT22;6680;53.220;10.402;2022-09-09T15:40:38;18.00;99.90
13229;DHT22;6680;53.220;10.402;2022-09-09T15:43:05;18.00;99.90
13229;DHT22;6680;53.220;10.402;2022-09-09T15:45:33;18.00;99.90
13229;DHT22;6680;53.220;10.402;2022-09-09T15:48:00;18.00;99.90
13229;DHT22;6680;53.220;10.402;2022-09-09T15:50:27;18.10;99.90
13229;DHT22;6680;53.220;10.402;2022-09-09T15:52:54;18.10;99.90